sensor_id;sensor_type;location;lat;lon;timestamp;P1;durP1;ratioP1;P2;durP2;ratioP2
71777;SDS011;59609;52.430;4.668;2023-07-24T00:00:31;9.03;;;2.90;;
71777;SDS011;59609;52.430;4.668;2023-07-24T00:02:56;7.00;;;2.40;;
71777;SDS011;59609;52.430;4.668;2023-07-24T00:05:21;6.30;;;2.70;;
71777;SDS011;59609;52.430;4.668;2023-07-24T00:07:46;7.10;;;2.77;;
71777;SDS011;59609;52.430;4.668;2023-07-24T00:10:12;9.07;;;3.00;;
71777;SDS011;59609;52.430;4.668;2023-07-24T00:12:37;5.57;;;2.50;;
71777;SDS011;59609;52.430;4.668;2023-07-24T00:15:02;7.13;;;2.83;;
71777;SDS011;59609;52.430;4.668;2023-07-24T00:17:27;7.25;;;2.20;;
71777;SDS011;59609;52.430;4.668;2023-07-24T00:19:53;7.43;;;2.40;;
71777;SDS011;59609;52.430;4.668;2023-07-24T00:22:18;5.37;;;2.20;;
71777;SDS011;59609;52.430;4.668;2023-07-24T00:24:43;10.70;;;2.80;;
71777;SDS011;59609;52.430;4.668;2023-07-24T00:27:08;8.75;;;3.22;;
71777;SDS011;59609;52.430;4.668;2023-07-24T00:29:34;6.00;;;2.53;;
71777;SDS011;59609;52.430;4.668;2023-07-24T00:31:59;8.73;;;2.60;;
71777;SDS011;59609;52.430;4.668;2023-07-24T00:34:24;6.03;;;2.30;;
71777;SDS011;59609;52.430;4.668;2023-07-24T00:36:49;8.67;;;2.40;;
71777;SDS011;59609;52.430;4.668;2023-07-24T00:39:15;9.90;;;2.27;;
71777;SDS011;59609;52.430;4.668;2023-07-24T00:41:40;7.87;;;2.60;;
71777;SDS011;59609;52.430;4.668;2023-07-24T00:44:05;10.32;;;2.83;;
71777;SDS011;59609;52.430;4.668;2023-07-24T00:46:30;6.03;;;2.50;;
71777;SDS011;59609;52.430;4.668;2023-07-24T00:48:57;8.00;;;2.45;;
71777;SDS011;59609;52.430;4.668;2023-07-24T00:51:23;8.35;;;2.45;;
71777;SDS011;59609;52.430;4.668;2023-07-24T00:53:48;8.07;;;2.15;;
71777;SDS011;59609;52.430;4.668;2023-07-24T00:56:13;5.60;;;2.20;;
71777;SDS011;59609;52.430;4.668;2023-07-24T00:58:38;8.10;;;2.77;;
71777;SDS011;59609;52.430;4.668;2023-07-24T01:01:04;7.57;;;2.78;;
71777;SDS011;59609;52.430;4.668;2023-07-24T01:03:33;7.57;;;2.65;;
71777;SDS011;59609;52.430;4.668;2023-07-24T01:05:59;7.30;;;2.40;;
71777;SDS011;59609;52.430;4.668;2023-07-24T01:08:25;5.47;;;2.13;;
71777;SDS011;59609;52.430;4.668;2023-07-24T01:10:51;7.75;;;2.50;;
71777;SDS011;59609;52.430;4.668;2023-07-24T01:13:18;7.97;;;2.37;;
71777;SDS011;59609;52.430;4.668;2023-07-24T01:15:54;12.23;;;2.63;;
71777;SDS011;59609;52.430;4.668;2023-07-24T01:18:20;7.90;;;2.30;;
71777;SDS011;59609;52.430;4.668;2023-07-24T01:20:48;7.40;;;2.28;;
71777;SDS011;59609;52.430;4.668;2023-07-24T01:26:00;6.15;;;2.83;;
71777;SDS011;59609;52.430;4.668;2023-07-24T01:28:27;6.50;;;2.10;;
71777;SDS011;59609;52.430;4.668;2023-07-24T01:30:55;13.82;;;3.03;;
71777;SDS011;59609;52.430;4.668;2023-07-24T01:33:21;10.60;;;2.90;;
71777;SDS011;59609;52.430;4.668;2023-07-24T01:35:51;5.90;;;2.63;;
71777;SDS011;59609;52.430;4.668;2023-07-24T01:38:18;11.68;;;2.58;;
71777;SDS011;59609;52.430;4.668;2023-07-24T01:40:43;5.25;;;2.15;;
71777;SDS011;59609;52.430;4.668;2023-07-24T01:43:09;6.45;;;2.25;;
71777;SDS011;59609;52.430;4.668;2023-07-24T01:45:34;8.10;;;2.53;;
71777;SDS011;59609;52.430;4.668;2023-07-24T01:48:00;7.07;;;2.35;;
71777;SDS011;59609;52.430;4.668;2023-07-24T01:50:26;8.40;;;2.35;;
71777;SDS011;59609;52.430;4.668;2023-07-24T01:52:51;10.57;;;3.87;;
71777;SDS011;59609;52.430;4.668;2023-07-24T01:55:16;12.13;;;2.97;;
71777;SDS011;59609;52.430;4.668;2023-07-24T01:57:42;5.40;;;2.15;;
71777;SDS011;59609;52.430;4.668;2023-07-24T02:00:07;8.50;;;2.60;;
71777;SDS011;59609;52.430;4.668;2023-07-24T02:02:32;6.88;;;2.40;;
71777;SDS011;59609;52.430;4.668;2023-07-24T02:04:57;7.03;;;2.07;;
71777;SDS011;59609;52.430;4.668;2023-07-24T02:07:23;6.20;;;2.50;;
71777;SDS011;59609;52.430;4.668;2023-07-24T02:09:48;6.83;;;2.40;;
71777;SDS011;59609;52.430;4.668;2023-07-24T02:12:13;6.43;;;2.03;;
71777;SDS011;59609;52.430;4.668;2023-07-24T02:14:38;6.40;;;1.83;;
71777;SDS011;59609;52.430;4.668;2023-07-24T02:17:03;9.40;;;2.77;;
71777;SDS011;59609;52.430;4.668;2023-07-24T02:19:29;6.23;;;2.10;;
71777;SDS011;59609;52.430;4.668;2023-07-24T02:21:54;11.57;;;2.63;;
71777;SDS011;59609;52.430;4.668;2023-07-24T02:24:19;7.00;;;2.73;;
71777;SDS011;59609;52.430;4.668;2023-07-24T02:26:44;6.17;;;2.27;;
71777;SDS011;59609;52.430;4.668;2023-07-24T02:29:10;7.40;;;2.80;;
71777;SDS011;59609;52.430;4.668;2023-07-24T02:31:35;5.03;;;2.10;;
71777;SDS011;59609;52.430;4.668;2023-07-24T02:34:00;6.27;;;2.10;;
71777;SDS011;59609;52.430;4.668;2023-07-24T02:36:25;6.30;;;2.47;;
71777;SDS011;59609;52.430;4.668;2023-07-24T02:38:50;4.03;;;2.30;;
71777;SDS011;59609;52.430;4.668;2023-07-24T02:41:16;11.37;;;2.77;;
71777;SDS011;59609;52.430;4.668;2023-07-24T02:43:41;8.43;;;2.77;;
71777;SDS011;59609;52.430;4.668;2023-07-24T02:46:06;6.80;;;2.47;;
71777;SDS011;59609;52.430;4.668;2023-07-24T02:48:31;14.10;;;3.00;;
71777;SDS011;59609;52.430;4.668;2023-07-24T02:50:57;11.00;;;2.70;;
71777;SDS011;59609;52.430;4.668;2023-07-24T02:53:22;7.63;;;2.53;;
71777;SDS011;59609;52.430;4.668;2023-07-24T02:55:47;10.47;;;2.70;;
71777;SDS011;59609;52.430;4.668;2023-07-24T02:58:12;8.30;;;3.00;;
71777;SDS011;59609;52.430;4.668;2023-07-24T03:00:38;10.65;;;2.50;;
71777;SDS011;59609;52.430;4.668;2023-07-24T03:03:03;8.55;;;3.17;;
71777;SDS011;59609;52.430;4.668;2023-07-24T03:05:28;8.13;;;3.33;;
71777;SDS011;59609;52.430;4.668;2023-07-24T03:07:54;9.23;;;3.15;;
71777;SDS011;59609;52.430;4.668;2023-07-24T03:10:19;9.63;;;2.80;;
71777;SDS011;59609;52.430;4.668;2023-07-24T03:12:44;9.30;;;3.10;;
71777;SDS011;59609;52.430;4.668;2023-07-24T03:15:09;8.30;;;3.13;;
71777;SDS011;59609;52.430;4.668;2023-07-24T03:17:35;10.55;;;3.53;;
71777;SDS011;59609;52.430;4.668;2023-07-24T03:20:07;10.37;;;3.37;;
71777;SDS011;59609;52.430;4.668;2023-07-24T03:22:32;11.05;;;3.30;;
71777;SDS011;59609;52.430;4.668;2023-07-24T03:24:58;8.87;;;3.13;;
71777;SDS011;59609;52.430;4.668;2023-07-24T03:27:23;9.93;;;3.33;;
71777;SDS011;59609;52.430;4.668;2023-07-24T03:29:48;7.67;;;2.93;;
71777;SDS011;59609;52.430;4.668;2023-07-24T03:32:13;8.30;;;3.10;;
71777;SDS011;59609;52.430;4.668;2023-07-24T03:34:39;10.75;;;3.40;;
71777;SDS011;59609;52.430;4.668;2023-07-24T03:37:04;10.50;;;3.67;;
71777;SDS011;59609;52.430;4.668;2023-07-24T03:39:29;10.23;;;3.20;;
71777;SDS011;59609;52.430;4.668;2023-07-24T03:41:54;8.00;;;3.27;;
71777;SDS011;59609;52.430;4.668;2023-07-24T03:44:20;9.03;;;2.83;;
71777;SDS011;59609;52.430;4.668;2023-07-24T03:46:45;9.73;;;2.97;;
71777;SDS011;59609;52.430;4.668;2023-07-24T03:49:10;12.68;;;3.40;;
71777;SDS011;59609;52.430;4.668;2023-07-24T03:51:35;10.43;;;3.00;;
71777;SDS011;59609;52.430;4.668;2023-07-24T03:54:01;8.63;;;3.33;;
71777;SDS011;59609;52.430;4.668;2023-07-24T03:56:26;11.60;;;3.60;;
71777;SDS011;59609;52.430;4.668;2023-07-24T03:58:52;10.03;;;3.23;;
71777;SDS011;59609;52.430;4.668;2023-07-24T04:01:17;12.38;;;3.53;;
71777;SDS011;59609;52.430;4.668;2023-07-24T04:03:42;12.80;;;3.50;;
71777;SDS011;59609;52.430;4.668;2023-07-24T04:06:07;11.67;;;3.30;;
71777;SDS011;59609;52.430;4.668;2023-07-24T04:08:32;10.60;;;3.15;;
71777;SDS011;59609;52.430;4.668;2023-07-24T04:10:58;12.53;;;3.73;;
71777;SDS011;59609;52.430;4.668;2023-07-24T04:13:23;9.05;;;3.40;;
71777;SDS011;59609;52.430;4.668;2023-07-24T04:15:48;14.83;;;4.47;;
71777;SDS011;59609;52.430;4.668;2023-07-24T04:18:14;10.20;;;3.50;;
71777;SDS011;59609;52.430;4.668;2023-07-24T04:20:39;11.80;;;3.73;;
71777;SDS011;59609;52.430;4.668;2023-07-24T04:23:04;11.43;;;3.80;;
71777;SDS011;59609;52.430;4.668;2023-07-24T04:25:29;9.50;;;3.07;;
71777;SDS011;59609;52.430;4.668;2023-07-24T04:27:54;10.07;;;3.37;;
71777;SDS011;59609;52.430;4.668;2023-07-24T04:30:20;11.30;;;3.40;;
71777;SDS011;59609;52.430;4.668;2023-07-24T04:32:45;12.40;;;3.47;;
71777;SDS011;59609;52.430;4.668;2023-07-24T04:35:11;8.98;;;3.40;;
71777;SDS011;59609;52.430;4.668;2023-07-24T04:37:36;11.88;;;3.10;;
71777;SDS011;59609;52.430;4.668;2023-07-24T04:40:01;10.63;;;3.33;;
71777;SDS011;59609;52.430;4.668;2023-07-24T04:42:31;9.30;;;3.38;;
71777;SDS011;59609;52.430;4.668;2023-07-24T04:44:56;16.10;;;3.75;;
71777;SDS011;59609;52.430;4.668;2023-07-24T04:47:22;8.30;;;3.38;;
71777;SDS011;59609;52.430;4.668;2023-07-24T04:49:47;10.07;;;2.87;;
71777;SDS011;59609;52.430;4.668;2023-07-24T04:52:12;12.23;;;3.50;;
71777;SDS011;59609;52.430;4.668;2023-07-24T04:54:37;10.33;;;3.63;;
71777;SDS011;59609;52.430;4.668;2023-07-24T04:57:02;13.33;;;3.17;;
71777;SDS011;59609;52.430;4.668;2023-07-24T04:59:28;11.40;;;3.53;;
71777;SDS011;59609;52.430;4.668;2023-07-24T05:01:53;11.40;;;3.17;;
71777;SDS011;59609;52.430;4.668;2023-07-24T05:04:18;11.87;;;3.67;;
71777;SDS011;59609;52.430;4.668;2023-07-24T05:06:43;9.23;;;3.30;;
71777;SDS011;59609;52.430;4.668;2023-07-24T05:09:09;11.33;;;3.07;;
71777;SDS011;59609;52.430;4.668;2023-07-24T05:11:34;10.37;;;3.67;;
71777;SDS011;59609;52.430;4.668;2023-07-24T05:13:59;10.87;;;3.50;;
71777;SDS011;59609;52.430;4.668;2023-07-24T05:16:24;9.20;;;3.67;;
71777;SDS011;59609;52.430;4.668;2023-07-24T05:18:50;12.15;;;3.65;;
71777;SDS011;59609;52.430;4.668;2023-07-24T05:21:15;9.80;;;3.50;;
71777;SDS011;59609;52.430;4.668;2023-07-24T05:23:40;8.07;;;3.40;;
71777;SDS011;59609;52.430;4.668;2023-07-24T05:26:05;11.90;;;3.87;;
71777;SDS011;59609;52.430;4.668;2023-07-24T05:28:31;11.77;;;3.95;;
71777;SDS011;59609;52.430;4.668;2023-07-24T05:31:00;7.82;;;3.85;;
71777;SDS011;59609;52.430;4.668;2023-07-24T05:33:25;11.60;;;3.90;;
71777;SDS011;59609;52.430;4.668;2023-07-24T05:35:52;12.63;;;3.85;;
71777;SDS011;59609;52.430;4.668;2023-07-24T05:38:22;18.45;;;4.30;;
71777;SDS011;59609;52.430;4.668;2023-07-24T05:40:53;11.50;;;3.83;;
71777;SDS011;59609;52.430;4.668;2023-07-24T05:43:18;8.90;;;3.88;;
71777;SDS011;59609;52.430;4.668;2023-07-24T05:45:43;7.87;;;3.70;;
71777;SDS011;59609;52.430;4.668;2023-07-24T05:48:09;14.60;;;4.20;;
71777;SDS011;59609;52.430;4.668;2023-07-24T05:50:34;8.37;;;3.83;;
71777;SDS011;59609;52.430;4.668;2023-07-24T05:52:59;8.90;;;3.40;;
71777;SDS011;59609;52.430;4.668;2023-07-24T05:55:24;10.97;;;3.70;;
71777;SDS011;59609;52.430;4.668;2023-07-24T05:57:50;11.43;;;3.70;;
71777;SDS011;59609;52.430;4.668;2023-07-24T06:00:15;8.93;;;3.57;;
71777;SDS011;59609;52.430;4.668;2023-07-24T06:02:40;8.95;;;3.85;;
71777;SDS011;59609;52.430;4.668;2023-07-24T06:05:05;10.70;;;4.20;;
71777;SDS011;59609;52.430;4.668;2023-07-24T06:07:31;10.23;;;4.13;;
71777;SDS011;59609;52.430;4.668;2023-07-24T06:09:56;13.83;;;4.33;;
71777;SDS011;59609;52.430;4.668;2023-07-24T06:12:21;10.43;;;4.87;;
71777;SDS011;59609;52.430;4.668;2023-07-24T06:14:46;9.87;;;4.40;;
71777;SDS011;59609;52.430;4.668;2023-07-24T06:17:12;10.33;;;4.33;;
71777;SDS011;59609;52.430;4.668;2023-07-24T06:19:37;14.17;;;4.07;;
71777;SDS011;59609;52.430;4.668;2023-07-24T06:22:02;7.33;;;4.17;;
71777;SDS011;59609;52.430;4.668;2023-07-24T06:24:27;16.85;;;5.43;;
71777;SDS011;59609;52.430;4.668;2023-07-24T06:26:53;12.93;;;4.23;;
71777;SDS011;59609;52.430;4.668;2023-07-24T06:29:18;10.07;;;4.03;;
71777;SDS011;59609;52.430;4.668;2023-07-24T06:31:43;8.47;;;3.80;;
71777;SDS011;59609;52.430;4.668;2023-07-24T06:34:08;11.60;;;4.05;;
71777;SDS011;59609;52.430;4.668;2023-07-24T06:36:34;7.60;;;3.90;;
71777;SDS011;59609;52.430;4.668;2023-07-24T06:38:59;9.93;;;3.87;;
71777;SDS011;59609;52.430;4.668;2023-07-24T06:41:24;11.53;;;3.83;;
71777;SDS011;59609;52.430;4.668;2023-07-24T06:43:50;9.40;;;3.90;;
71777;SDS011;59609;52.430;4.668;2023-07-24T06:46:15;8.48;;;3.95;;
71777;SDS011;59609;52.430;4.668;2023-07-24T06:48:40;9.57;;;3.90;;
71777;SDS011;59609;52.430;4.668;2023-07-24T06:51:05;11.87;;;3.47;;
71777;SDS011;59609;52.430;4.668;2023-07-24T06:53:31;10.73;;;3.43;;
71777;SDS011;59609;52.430;4.668;2023-07-24T06:55:56;11.13;;;4.40;;
71777;SDS011;59609;52.430;4.668;2023-07-24T06:58:21;10.37;;;3.63;;
71777;SDS011;59609;52.430;4.668;2023-07-24T07:00:46;8.47;;;4.07;;
71777;SDS011;59609;52.430;4.668;2023-07-24T07:03:12;12.80;;;3.80;;
71777;SDS011;59609;52.430;4.668;2023-07-24T07:05:37;8.60;;;4.20;;
71777;SDS011;59609;52.430;4.668;2023-07-24T07:08:02;8.27;;;3.43;;
71777;SDS011;59609;52.430;4.668;2023-07-24T07:10:27;8.93;;;4.15;;
71777;SDS011;59609;52.430;4.668;2023-07-24T07:12:53;10.57;;;3.90;;
71777;SDS011;59609;52.430;4.668;2023-07-24T07:15:18;6.90;;;3.73;;
71777;SDS011;59609;52.430;4.668;2023-07-24T07:17:43;7.00;;;3.53;;
71777;SDS011;59609;52.430;4.668;2023-07-24T07:20:08;8.93;;;4.20;;
71777;SDS011;59609;52.430;4.668;2023-07-24T07:22:34;8.88;;;3.67;;
71777;SDS011;59609;52.430;4.668;2023-07-24T07:24:59;6.63;;;3.60;;
71777;SDS011;59609;52.430;4.668;2023-07-24T07:27:24;10.30;;;3.83;;
71777;SDS011;59609;52.430;4.668;2023-07-24T07:29:49;10.97;;;3.77;;
71777;SDS011;59609;52.430;4.668;2023-07-24T07:32:14;8.87;;;3.63;;
71777;SDS011;59609;52.430;4.668;2023-07-24T07:34:40;8.20;;;3.27;;
71777;SDS011;59609;52.430;4.668;2023-07-24T07:37:06;7.85;;;3.70;;
71777;SDS011;59609;52.430;4.668;2023-07-24T07:39:31;7.27;;;3.47;;
71777;SDS011;59609;52.430;4.668;2023-07-24T07:41:57;8.60;;;3.88;;
71777;SDS011;59609;52.430;4.668;2023-07-24T07:44:22;6.33;;;3.17;;
71777;SDS011;59609;52.430;4.668;2023-07-24T07:46:48;7.23;;;3.90;;
71777;SDS011;59609;52.430;4.668;2023-07-24T07:49:13;7.40;;;3.30;;
71777;SDS011;59609;52.430;4.668;2023-07-24T07:51:38;8.83;;;3.63;;
71777;SDS011;59609;52.430;4.668;2023-07-24T07:54:03;5.70;;;3.40;;
71777;SDS011;59609;52.430;4.668;2023-07-24T07:56:29;6.03;;;3.60;;
71777;SDS011;59609;52.430;4.668;2023-07-24T07:58:54;6.93;;;3.47;;
71777;SDS011;59609;52.430;4.668;2023-07-24T08:01:19;4.73;;;3.00;;
71777;SDS011;59609;52.430;4.668;2023-07-24T08:03:45;4.95;;;3.42;;
71777;SDS011;59609;52.430;4.668;2023-07-24T08:06:10;6.77;;;3.67;;
71777;SDS011;59609;52.430;4.668;2023-07-24T08:08:35;6.28;;;3.70;;
71777;SDS011;59609;52.430;4.668;2023-07-24T08:11:06;7.57;;;3.87;;
71777;SDS011;59609;52.430;4.668;2023-07-24T08:13:32;6.78;;;3.30;;
71777;SDS011;59609;52.430;4.668;2023-07-24T08:15:57;7.28;;;3.15;;
71777;SDS011;59609;52.430;4.668;2023-07-24T08:18:24;7.57;;;3.63;;
71777;SDS011;59609;52.430;4.668;2023-07-24T08:20:49;6.90;;;3.08;;
71777;SDS011;59609;52.430;4.668;2023-07-24T08:23:15;5.63;;;3.23;;
71777;SDS011;59609;52.430;4.668;2023-07-24T08:25:40;7.07;;;3.30;;
71777;SDS011;59609;52.430;4.668;2023-07-24T08:28:05;5.83;;;3.37;;
71777;SDS011;59609;52.430;4.668;2023-07-24T08:30:30;4.97;;;3.33;;
71777;SDS011;59609;52.430;4.668;2023-07-24T08:32:56;10.55;;;3.55;;
71777;SDS011;59609;52.430;4.668;2023-07-24T08:35:22;3.42;;;2.83;;
71777;SDS011;59609;52.430;4.668;2023-07-24T08:37:48;5.35;;;3.38;;
71777;SDS011;59609;52.430;4.668;2023-07-24T08:40:13;8.73;;;3.33;;
71777;SDS011;59609;52.430;4.668;2023-07-24T08:42:40;5.75;;;3.17;;
71777;SDS011;59609;52.430;4.668;2023-07-24T08:45:10;6.53;;;3.35;;
71777;SDS011;59609;52.430;4.668;2023-07-24T08:47:35;6.25;;;3.15;;
71777;SDS011;59609;52.430;4.668;2023-07-24T08:50:01;4.23;;;3.53;;
71777;SDS011;59609;52.430;4.668;2023-07-24T08:52:26;5.75;;;3.55;;
71777;SDS011;59609;52.430;4.668;2023-07-24T08:54:52;8.23;;;3.60;;
71777;SDS011;59609;52.430;4.668;2023-07-24T08:57:19;6.47;;;3.50;;
71777;SDS011;59609;52.430;4.668;2023-07-24T08:59:45;7.30;;;3.30;;
71777;SDS011;59609;52.430;4.668;2023-07-24T09:02:10;6.07;;;3.23;;
71777;SDS011;59609;52.430;4.668;2023-07-24T09:04:35;7.80;;;3.70;;
71777;SDS011;59609;52.430;4.668;2023-07-24T09:07:01;7.00;;;3.30;;
71777;SDS011;59609;52.430;4.668;2023-07-24T09:09:29;5.22;;;3.13;;
71777;SDS011;59609;52.430;4.668;2023-07-24T09:11:54;4.70;;;3.20;;
71777;SDS011;59609;52.430;4.668;2023-07-24T09:14:38;3.28;;;2.90;;
71777;SDS011;59609;52.430;4.668;2023-07-24T09:17:07;6.40;;;3.50;;
71777;SDS011;59609;52.430;4.668;2023-07-24T09:19:33;6.85;;;3.22;;
71777;SDS011;59609;52.430;4.668;2023-07-24T09:24:54;6.18;;;3.25;;
71777;SDS011;59609;52.430;4.668;2023-07-24T09:27:20;5.55;;;3.47;;
71777;SDS011;59609;52.430;4.668;2023-07-24T09:29:47;6.57;;;3.35;;
71777;SDS011;59609;52.430;4.668;2023-07-24T09:32:22;6.73;;;3.20;;
71777;SDS011;59609;52.430;4.668;2023-07-24T09:34:48;6.60;;;3.50;;
71777;SDS011;59609;52.430;4.668;2023-07-24T09:37:30;6.80;;;3.08;;
71777;SDS011;59609;52.430;4.668;2023-07-24T09:39:55;5.22;;;2.88;;
71777;SDS011;59609;52.430;4.668;2023-07-24T09:42:30;7.63;;;3.07;;
71777;SDS011;59609;52.430;4.668;2023-07-24T09:44:55;7.28;;;3.35;;
71777;SDS011;59609;52.430;4.668;2023-07-24T09:47:21;5.90;;;3.37;;
71777;SDS011;59609;52.430;4.668;2023-07-24T09:49:46;4.82;;;3.20;;
71777;SDS011;59609;52.430;4.668;2023-07-24T09:52:11;3.03;;;2.47;;
71777;SDS011;59609;52.430;4.668;2023-07-24T09:54:40;6.47;;;3.25;;
71777;SDS011;59609;52.430;4.668;2023-07-24T09:57:10;6.97;;;3.33;;
71777;SDS011;59609;52.430;4.668;2023-07-24T09:59:40;4.80;;;3.20;;
71777;SDS011;59609;52.430;4.668;2023-07-24T10:02:05;6.65;;;3.28;;
71777;SDS011;59609;52.430;4.668;2023-07-24T10:04:32;4.30;;;3.30;;
71777;SDS011;59609;52.430;4.668;2023-07-24T10:06:58;4.90;;;2.97;;
71777;SDS011;59609;52.430;4.668;2023-07-24T10:09:23;6.03;;;3.10;;
71777;SDS011;59609;52.430;4.668;2023-07-24T10:11:49;6.43;;;3.38;;
71777;SDS011;59609;52.430;4.668;2023-07-24T10:14:14;6.00;;;3.65;;
71777;SDS011;59609;52.430;4.668;2023-07-24T10:16:40;6.93;;;3.20;;
71777;SDS011;59609;52.430;4.668;2023-07-24T10:19:14;4.40;;;2.90;;
71777;SDS011;59609;52.430;4.668;2023-07-24T10:21:44;6.05;;;2.95;;
71777;SDS011;59609;52.430;4.668;2023-07-24T10:24:09;6.47;;;3.20;;
71777;SDS011;59609;52.430;4.668;2023-07-24T10:26:34;6.43;;;3.43;;
71777;SDS011;59609;52.430;4.668;2023-07-24T10:29:01;7.07;;;3.28;;
71777;SDS011;59609;52.430;4.668;2023-07-24T10:31:26;3.78;;;2.90;;
71777;SDS011;59609;52.430;4.668;2023-07-24T10:33:52;6.93;;;3.53;;
71777;SDS011;59609;52.430;4.668;2023-07-24T10:36:18;7.50;;;3.17;;
71777;SDS011;59609;52.430;4.668;2023-07-24T10:38:45;6.03;;;3.28;;
71777;SDS011;59609;52.430;4.668;2023-07-24T10:41:10;6.50;;;3.38;;
71777;SDS011;59609;52.430;4.668;2023-07-24T10:43:45;4.78;;;3.38;;
71777;SDS011;59609;52.430;4.668;2023-07-24T10:46:11;5.70;;;3.33;;
71777;SDS011;59609;52.430;4.668;2023-07-24T10:48:37;5.53;;;3.25;;
71777;SDS011;59609;52.430;4.668;2023-07-24T10:51:06;7.75;;;3.55;;
71777;SDS011;59609;52.430;4.668;2023-07-24T10:53:34;5.90;;;3.15;;
71777;SDS011;59609;52.430;4.668;2023-07-24T10:55:59;4.68;;;3.30;;
71777;SDS011;59609;52.430;4.668;2023-07-24T10:58:25;6.85;;;3.28;;
71777;SDS011;59609;52.430;4.668;2023-07-24T11:00:51;8.95;;;3.10;;
71777;SDS011;59609;52.430;4.668;2023-07-24T11:03:17;8.03;;;3.30;;
71777;SDS011;59609;52.430;4.668;2023-07-24T11:05:43;5.75;;;2.70;;
71777;SDS011;59609;52.430;4.668;2023-07-24T11:08:11;3.25;;;2.13;;
71777;SDS011;59609;52.430;4.668;2023-07-24T11:10:47;4.13;;;2.58;;
71777;SDS011;59609;52.430;4.668;2023-07-24T11:13:12;3.05;;;2.47;;
71777;SDS011;59609;52.430;4.668;2023-07-24T11:15:37;4.60;;;2.13;;
71777;SDS011;59609;52.430;4.668;2023-07-24T11:18:03;4.83;;;2.53;;
71777;SDS011;59609;52.430;4.668;2023-07-24T11:20:29;4.30;;;2.97;;
71777;SDS011;59609;52.430;4.668;2023-07-24T11:22:57;3.33;;;2.67;;
71777;SDS011;59609;52.430;4.668;2023-07-24T11:25:22;5.57;;;2.50;;
71777;SDS011;59609;52.430;4.668;2023-07-24T11:27:48;1.87;;;1.67;;
71777;SDS011;59609;52.430;4.668;2023-07-24T11:30:18;3.10;;;1.33;;
71777;SDS011;59609;52.430;4.668;2023-07-24T11:32:44;1.70;;;1.00;;
71777;SDS011;59609;52.430;4.668;2023-07-24T11:35:09;1.38;;;1.27;;
71777;SDS011;59609;52.430;4.668;2023-07-24T11:37:35;2.00;;;1.20;;
71777;SDS011;59609;52.430;4.668;2023-07-24T11:40:01;1.10;;;1.00;;
71777;SDS011;59609;52.430;4.668;2023-07-24T11:42:36;2.75;;;1.15;;
71777;SDS011;59609;52.430;4.668;2023-07-24T11:45:01;1.27;;;1.00;;
71777;SDS011;59609;52.430;4.668;2023-07-24T11:47:27;1.67;;;1.10;;
71777;SDS011;59609;52.430;4.668;2023-07-24T11:49:59;1.92;;;1.10;;
71777;SDS011;59609;52.430;4.668;2023-07-24T11:52:25;1.50;;;1.05;;
71777;SDS011;59609;52.430;4.668;2023-07-24T11:54:56;1.97;;;0.90;;
71777;SDS011;59609;52.430;4.668;2023-07-24T11:57:26;1.40;;;0.82;;
71777;SDS011;59609;52.430;4.668;2023-07-24T11:59:52;1.70;;;0.90;;
71777;SDS011;59609;52.430;4.668;2023-07-24T12:02:18;1.60;;;0.93;;
71777;SDS011;59609;52.430;4.668;2023-07-24T12:04:43;0.85;;;0.80;;
71777;SDS011;59609;52.430;4.668;2023-07-24T12:07:09;2.30;;;0.77;;
71777;SDS011;59609;52.430;4.668;2023-07-24T12:09:34;2.28;;;0.95;;
71777;SDS011;59609;52.430;4.668;2023-07-24T12:11:59;2.13;;;1.37;;
71777;SDS011;59609;52.430;4.668;2023-07-24T12:14:25;3.80;;;0.98;;
71777;SDS011;59609;52.430;4.668;2023-07-24T12:16:59;2.35;;;1.65;;
71777;SDS011;59609;52.430;4.668;2023-07-24T12:19:25;5.38;;;1.17;;
71777;SDS011;59609;52.430;4.668;2023-07-24T12:21:51;2.67;;;1.67;;
71777;SDS011;59609;52.430;4.668;2023-07-24T12:24:16;3.38;;;1.50;;
71777;SDS011;59609;52.430;4.668;2023-07-24T12:26:41;5.47;;;1.90;;
71777;SDS011;59609;52.430;4.668;2023-07-24T12:29:06;5.68;;;1.60;;
71777;SDS011;59609;52.430;4.668;2023-07-24T12:31:32;6.07;;;1.83;;
71777;SDS011;59609;52.430;4.668;2023-07-24T12:33:58;5.53;;;1.80;;
71777;SDS011;59609;52.430;4.668;2023-07-24T12:36:24;10.03;;;2.40;;
71777;SDS011;59609;52.430;4.668;2023-07-24T12:38:49;6.05;;;2.03;;
71777;SDS011;59609;52.430;4.668;2023-07-24T12:41:14;6.05;;;2.00;;
71777;SDS011;59609;52.430;4.668;2023-07-24T12:43:40;5.77;;;1.90;;
71777;SDS011;59609;52.430;4.668;2023-07-24T12:46:05;5.40;;;1.70;;
71777;SDS011;59609;52.430;4.668;2023-07-24T12:48:30;6.60;;;1.90;;
71777;SDS011;59609;52.430;4.668;2023-07-24T12:50:56;5.80;;;1.50;;
71777;SDS011;59609;52.430;4.668;2023-07-24T12:53:22;4.70;;;2.00;;
71777;SDS011;59609;52.430;4.668;2023-07-24T12:55:48;7.93;;;1.70;;
71777;SDS011;59609;52.430;4.668;2023-07-24T12:58:13;4.57;;;1.60;;
71777;SDS011;59609;52.430;4.668;2023-07-24T13:00:38;7.63;;;1.60;;
71777;SDS011;59609;52.430;4.668;2023-07-24T13:03:06;11.10;;;2.03;;
71777;SDS011;59609;52.430;4.668;2023-07-24T13:05:33;6.50;;;1.40;;
71777;SDS011;59609;52.430;4.668;2023-07-24T13:07:58;8.75;;;2.45;;
71777;SDS011;59609;52.430;4.668;2023-07-24T13:10:23;3.87;;;1.30;;
71777;SDS011;59609;52.430;4.668;2023-07-24T13:12:49;5.67;;;1.37;;
71777;SDS011;59609;52.430;4.668;2023-07-24T13:15:14;5.45;;;1.90;;
71777;SDS011;59609;52.430;4.668;2023-07-24T13:17:39;5.25;;;1.52;;
71777;SDS011;59609;52.430;4.668;2023-07-24T13:20:05;8.50;;;1.53;;
71777;SDS011;59609;52.430;4.668;2023-07-24T13:22:31;5.78;;;1.30;;
71777;SDS011;59609;52.430;4.668;2023-07-24T13:24:56;7.03;;;1.20;;
71777;SDS011;59609;52.430;4.668;2023-07-24T13:27:22;2.83;;;1.10;;
71777;SDS011;59609;52.430;4.668;2023-07-24T13:29:47;3.67;;;1.00;;
71777;SDS011;59609;52.430;4.668;2023-07-24T13:32:12;6.33;;;1.30;;
71777;SDS011;59609;52.430;4.668;2023-07-24T13:34:37;4.00;;;1.00;;
71777;SDS011;59609;52.430;4.668;2023-07-24T13:37:03;5.50;;;1.53;;
71777;SDS011;59609;52.430;4.668;2023-07-24T13:39:28;4.50;;;1.02;;
71777;SDS011;59609;52.430;4.668;2023-07-24T13:41:54;9.02;;;1.30;;
71777;SDS011;59609;52.430;4.668;2023-07-24T13:44:19;2.70;;;1.00;;
71777;SDS011;59609;52.430;4.668;2023-07-24T13:46:45;4.63;;;1.00;;
71777;SDS011;59609;52.430;4.668;2023-07-24T13:49:10;3.53;;;1.57;;
71777;SDS011;59609;52.430;4.668;2023-07-24T13:51:35;8.00;;;1.37;;
71777;SDS011;59609;52.430;4.668;2023-07-24T13:54:00;2.83;;;1.23;;
71777;SDS011;59609;52.430;4.668;2023-07-24T13:56:26;3.90;;;0.93;;
71777;SDS011;59609;52.430;4.668;2023-07-24T13:58:52;2.92;;;1.10;;
71777;SDS011;59609;52.430;4.668;2023-07-24T14:01:18;3.05;;;1.20;;
71777;SDS011;59609;52.430;4.668;2023-07-24T14:03:43;6.13;;;1.30;;
71777;SDS011;59609;52.430;4.668;2023-07-24T14:06:08;3.00;;;1.20;;
71777;SDS011;59609;52.430;4.668;2023-07-24T14:08:33;2.10;;;1.00;;
71777;SDS011;59609;52.430;4.668;2023-07-24T14:10:58;1.57;;;0.80;;
71777;SDS011;59609;52.430;4.668;2023-07-24T14:13:24;1.47;;;0.87;;
71777;SDS011;59609;52.430;4.668;2023-07-24T14:15:49;2.00;;;0.83;;
71777;SDS011;59609;52.430;4.668;2023-07-24T14:18:14;1.60;;;0.88;;
71777;SDS011;59609;52.430;4.668;2023-07-24T14:20:39;1.23;;;0.63;;
71777;SDS011;59609;52.430;4.668;2023-07-24T14:23:05;1.40;;;0.50;;
71777;SDS011;59609;52.430;4.668;2023-07-24T14:25:31;3.15;;;0.85;;
71777;SDS011;59609;52.430;4.668;2023-07-24T14:27:56;1.80;;;0.60;;
71777;SDS011;59609;52.430;4.668;2023-07-24T14:30:21;2.30;;;0.73;;
71777;SDS011;59609;52.430;4.668;2023-07-24T14:32:46;1.47;;;0.50;;
71777;SDS011;59609;52.430;4.668;2023-07-24T14:35:11;2.40;;;0.65;;
71777;SDS011;59609;52.430;4.668;2023-07-24T14:37:37;1.50;;;0.70;;
71777;SDS011;59609;52.430;4.668;2023-07-24T14:40:02;0.82;;;0.70;;
71777;SDS011;59609;52.430;4.668;2023-07-24T14:42:27;2.58;;;0.82;;